Flight Track Log - Related Links

Times and Time Zones

All times are in EDT time to prevent confusion due to time zone crossing. See the N3272V flight status page for this flight to view local times or setup timezone preferences in your user account.


Time Position Orientation Groundspeed Altitude Reporting Facility
EDT Latitude Longitude Course Direction KTS MPH feet Rate Location/Type
Sat 11:57:15 AM 33.7833 -112.0000 360° North 129 148 5,600  Level Phoenix TRACON
Sat 11:58:16 AM 33.8167 -112.0000 360° North 125 144 6,600 991 Climbing Phoenix TRACON
Sat 11:59:10 AM 33.8500 -112.0167 337° Northwest 117 135 7,500 873 Climbing Phoenix TRACON
Sat 12:00:06 PM 33.8781 -112.0183 357° North 113 130 8,200 564 Climbing Albuquerque Center
Sat 12:01:07 PM 33.9122 -112.0272 348° North 126 145 8,600 195 Climbing Albuquerque Center
Sat 12:02:09 PM 33.9542 -112.0431 343° North 155 178 8,600 -98 Level Albuquerque Center
Sat 12:03:10 PM 33.9944 -112.0581 343° North 152 175 8,400 -98 Descending Albuquerque Center
Sat 12:04:12 PM 34.0322 -112.0700 345° North 141 162 8,400  Level Albuquerque Center
Sat 12:05:14 PM 34.0681 -112.0811 346° North 134 154 8,400  Level Albuquerque Center
Sat 12:06:15 PM 34.1044 -112.0878 351° North 132 152 8,400  Level Albuquerque Center
Sat 12:07:17 PM 34.1406 -112.0958 350° North 132 152 8,400  Level Albuquerque Center
Sat 12:08:19 PM 34.1833 -112.1042 351° North 129 148 8,400 49 Level Albuquerque Center
Sat 12:09:20 PM 34.2194 -112.1178 343° North 134 154 8,500 49 Climbing Albuquerque Center
Sat 12:10:22 PM 34.2544 -112.1289 345° North 132 152 8,500 -49 Level Albuquerque Center
Sat 12:11:23 PM 34.2881 -112.1392 346° North 126 145 8,400 -49 Descending Albuquerque Center
Sat 12:12:25 PM 34.3239 -112.1481 348° North 130 150 8,400 48 Level Albuquerque Center
Sat 12:13:27 PM 34.3569 -112.1592 344° North 125 144 8,500  Climbing Albuquerque Center
Sat 12:14:28 PM 34.3894 -112.1731 341° North 124 143 8,400  Descending Albuquerque Center
Sat 12:15:30 PM 34.4319 -112.1883 343° North 130 150 8,500 48 Climbing Albuquerque Center
Sat 12:16:32 PM 34.4669 -112.2006 344° North 132 152 8,500  Level Albuquerque Center

Login

Don't have an account? Register now (free) for customized features, flight alerts, and more!